sensor_id;sensor_type;location;lat;lon;timestamp;P1;durP1;ratioP1;P2;durP2;ratioP2
32786;SDS011;19139;49.372;8.580;2024-03-25T00:00:17;5.87;;;3.10;;
32786;SDS011;19139;49.372;8.580;2024-03-25T00:02:43;6.70;;;3.33;;
32786;SDS011;19139;49.372;8.580;2024-03-25T00:05:09;5.10;;;3.10;;
32786;SDS011;19139;49.372;8.580;2024-03-25T00:07:36;4.57;;;3.00;;
32786;SDS011;19139;49.372;8.580;2024-03-25T00:10:03;7.63;;;2.70;;
32786;SDS011;19139;49.372;8.580;2024-03-25T00:12:31;7.90;;;2.67;;
32786;SDS011;19139;49.372;8.580;2024-03-25T00:14:57;3.77;;;2.57;;
32786;SDS011;19139;49.372;8.580;2024-03-25T00:17:23;5.03;;;3.17;;
32786;SDS011;19139;49.372;8.580;2024-03-25T00:19:49;6.50;;;3.07;;
32786;SDS011;19139;49.372;8.580;2024-03-25T00:22:18;6.23;;;3.10;;
32786;SDS011;19139;49.372;8.580;2024-03-25T00:24:45;6.50;;;3.40;;
32786;SDS011;19139;49.372;8.580;2024-03-25T00:27:15;4.53;;;3.10;;
32786;SDS011;19139;49.372;8.580;2024-03-25T00:29:41;5.57;;;2.70;;
32786;SDS011;19139;49.372;8.580;2024-03-25T00:32:07;6.33;;;3.00;;
32786;SDS011;19139;49.372;8.580;2024-03-25T00:34:33;9.17;;;3.40;;
32786;SDS011;19139;49.372;8.580;2024-03-25T00:36:59;6.60;;;4.00;;
32786;SDS011;19139;49.372;8.580;2024-03-25T00:39:26;7.70;;;3.70;;
32786;SDS011;19139;49.372;8.580;2024-03-25T00:41:53;5.80;;;4.07;;
32786;SDS011;19139;49.372;8.580;2024-03-25T00:44:19;5.87;;;3.57;;
32786;SDS011;19139;49.372;8.580;2024-03-25T00:46:45;6.87;;;3.60;;
32786;SDS011;19139;49.372;8.580;2024-03-25T00:49:11;6.93;;;3.50;;
32786;SDS011;19139;49.372;8.580;2024-03-25T00:51:37;6.00;;;3.50;;
32786;SDS011;19139;49.372;8.580;2024-03-25T00:54:03;6.50;;;2.70;;
32786;SDS011;19139;49.372;8.580;2024-03-25T00:56:30;5.13;;;2.83;;
32786;SDS011;19139;49.372;8.580;2024-03-25T00:58:56;4.77;;;3.30;;
32786;SDS011;19139;49.372;8.580;2024-03-25T01:01:23;5.93;;;2.87;;
32786;SDS011;19139;49.372;8.580;2024-03-25T01:03:49;6.77;;;4.17;;
32786;SDS011;19139;49.372;8.580;2024-03-25T01:06:15;6.63;;;3.87;;
32786;SDS011;19139;49.372;8.580;2024-03-25T01:08:41;5.97;;;3.07;;
32786;SDS011;19139;49.372;8.580;2024-03-25T01:11:07;5.73;;;3.60;;
32786;SDS011;19139;49.372;8.580;2024-03-25T01:13:32;8.10;;;3.10;;
32786;SDS011;19139;49.372;8.580;2024-03-25T01:15:58;6.47;;;3.20;;
32786;SDS011;19139;49.372;8.580;2024-03-25T01:18:24;8.00;;;3.67;;
32786;SDS011;19139;49.372;8.580;2024-03-25T01:20:50;7.10;;;3.37;;
32786;SDS011;19139;49.372;8.580;2024-03-25T01:23:16;8.53;;;3.70;;
32786;SDS011;19139;49.372;8.580;2024-03-25T01:25:41;6.83;;;3.60;;
32786;SDS011;19139;49.372;8.580;2024-03-25T01:28:07;7.73;;;3.40;;
32786;SDS011;19139;49.372;8.580;2024-03-25T01:30:33;7.07;;;3.00;;
32786;SDS011;19139;49.372;8.580;2024-03-25T01:33:01;5.33;;;2.90;;
32786;SDS011;19139;49.372;8.580;2024-03-25T01:35:27;7.03;;;3.27;;
32786;SDS011;19139;49.372;8.580;2024-03-25T01:37:53;5.83;;;3.33;;
32786;SDS011;19139;49.372;8.580;2024-03-25T01:40:19;7.03;;;3.20;;
32786;SDS011;19139;49.372;8.580;2024-03-25T01:42:54;7.83;;;3.47;;
32786;SDS011;19139;49.372;8.580;2024-03-25T01:45:21;4.00;;;3.30;;
32786;SDS011;19139;49.372;8.580;2024-03-25T01:47:47;11.27;;;4.17;;
32786;SDS011;19139;49.372;8.580;2024-03-25T01:50:13;6.57;;;2.97;;
32786;SDS011;19139;49.372;8.580;2024-03-25T01:52:39;6.70;;;3.40;;
32786;SDS011;19139;49.372;8.580;2024-03-25T01:55:05;7.43;;;3.33;;
32786;SDS011;19139;49.372;8.580;2024-03-25T01:57:36;8.27;;;3.47;;
32786;SDS011;19139;49.372;8.580;2024-03-25T02:00:04;6.50;;;3.83;;
32786;SDS011;19139;49.372;8.580;2024-03-25T02:02:31;6.10;;;3.20;;
32786;SDS011;19139;49.372;8.580;2024-03-25T02:04:59;9.03;;;3.40;;
32786;SDS011;19139;49.372;8.580;2024-03-25T02:07:25;6.43;;;3.30;;
32786;SDS011;19139;49.372;8.580;2024-03-25T02:09:51;8.20;;;3.63;;
32786;SDS011;19139;49.372;8.580;2024-03-25T02:12:18;4.87;;;3.80;;
32786;SDS011;19139;49.372;8.580;2024-03-25T02:14:44;6.57;;;4.03;;
32786;SDS011;19139;49.372;8.580;2024-03-25T02:17:10;7.53;;;3.57;;
32786;SDS011;19139;49.372;8.580;2024-03-25T02:19:37;8.50;;;3.77;;
32786;SDS011;19139;49.372;8.580;2024-03-25T02:22:04;7.60;;;3.70;;
32786;SDS011;19139;49.372;8.580;2024-03-25T02:24:30;7.93;;;4.43;;
32786;SDS011;19139;49.372;8.580;2024-03-25T02:26:58;7.57;;;4.17;;
32786;SDS011;19139;49.372;8.580;2024-03-25T02:29:32;14.73;;;4.63;;
32786;SDS011;19139;49.372;8.580;2024-03-25T02:31:58;6.13;;;3.93;;
32786;SDS011;19139;49.372;8.580;2024-03-25T02:34:24;9.40;;;3.97;;
32786;SDS011;19139;49.372;8.580;2024-03-25T02:36:50;6.87;;;4.03;;
32786;SDS011;19139;49.372;8.580;2024-03-25T02:39:18;7.47;;;3.93;;
32786;SDS011;19139;49.372;8.580;2024-03-25T02:41:45;7.80;;;3.47;;
32786;SDS011;19139;49.372;8.580;2024-03-25T02:44:11;8.77;;;4.57;;
32786;SDS011;19139;49.372;8.580;2024-03-25T02:46:39;8.50;;;4.57;;
32786;SDS011;19139;49.372;8.580;2024-03-25T02:49:05;8.73;;;3.93;;
32786;SDS011;19139;49.372;8.580;2024-03-25T02:51:31;6.87;;;4.10;;
32786;SDS011;19139;49.372;8.580;2024-03-25T02:53:57;9.93;;;4.07;;
32786;SDS011;19139;49.372;8.580;2024-03-25T02:56:22;9.00;;;4.47;;
32786;SDS011;19139;49.372;8.580;2024-03-25T02:58:48;8.17;;;4.67;;
32786;SDS011;19139;49.372;8.580;2024-03-25T03:01:15;8.90;;;4.20;;
32786;SDS011;19139;49.372;8.580;2024-03-25T03:03:42;10.77;;;4.83;;
32786;SDS011;19139;49.372;8.580;2024-03-25T03:06:07;7.47;;;4.20;;
32786;SDS011;19139;49.372;8.580;2024-03-25T03:08:33;8.43;;;3.90;;
32786;SDS011;19139;49.372;8.580;2024-03-25T03:10:59;6.07;;;4.23;;
32786;SDS011;19139;49.372;8.580;2024-03-25T03:13:25;11.63;;;4.10;;
32786;SDS011;19139;49.372;8.580;2024-03-25T03:15:51;7.30;;;4.10;;
32786;SDS011;19139;49.372;8.580;2024-03-25T03:18:16;4.87;;;3.60;;
32786;SDS011;19139;49.372;8.580;2024-03-25T03:20:42;8.00;;;4.40;;
32786;SDS011;19139;49.372;8.580;2024-03-25T03:23:08;6.93;;;4.23;;
32786;SDS011;19139;49.372;8.580;2024-03-25T03:25:34;7.80;;;4.27;;
32786;SDS011;19139;49.372;8.580;2024-03-25T03:28:00;9.00;;;4.63;;
32786;SDS011;19139;49.372;8.580;2024-03-25T03:30:26;10.70;;;4.93;;
32786;SDS011;19139;49.372;8.580;2024-03-25T03:32:52;9.13;;;4.50;;
32786;SDS011;19139;49.372;8.580;2024-03-25T03:35:18;7.83;;;4.33;;
32786;SDS011;19139;49.372;8.580;2024-03-25T03:37:44;7.97;;;4.30;;
32786;SDS011;19139;49.372;8.580;2024-03-25T03:40:10;10.67;;;4.40;;
32786;SDS011;19139;49.372;8.580;2024-03-25T03:42:36;8.07;;;4.27;;
32786;SDS011;19139;49.372;8.580;2024-03-25T03:45:02;9.03;;;4.60;;
32786;SDS011;19139;49.372;8.580;2024-03-25T03:47:28;9.87;;;5.03;;
32786;SDS011;19139;49.372;8.580;2024-03-25T03:49:54;8.67;;;4.40;;
32786;SDS011;19139;49.372;8.580;2024-03-25T03:52:20;8.63;;;4.90;;
32786;SDS011;19139;49.372;8.580;2024-03-25T03:54:45;8.53;;;4.90;;
32786;SDS011;19139;49.372;8.580;2024-03-25T03:57:11;9.47;;;4.90;;
32786;SDS011;19139;49.372;8.580;2024-03-25T03:59:37;8.23;;;4.87;;
32786;SDS011;19139;49.372;8.580;2024-03-25T04:02:03;10.10;;;5.57;;
32786;SDS011;19139;49.372;8.580;2024-03-25T04:04:28;8.73;;;5.20;;
32786;SDS011;19139;49.372;8.580;2024-03-25T04:06:54;7.53;;;4.90;;
32786;SDS011;19139;49.372;8.580;2024-03-25T04:09:20;7.97;;;5.17;;
32786;SDS011;19139;49.372;8.580;2024-03-25T04:11:48;8.47;;;4.47;;
32786;SDS011;19139;49.372;8.580;2024-03-25T04:14:14;9.07;;;5.00;;
32786;SDS011;19139;49.372;8.580;2024-03-25T04:16:40;8.70;;;4.47;;
32786;SDS011;19139;49.372;8.580;2024-03-25T04:19:06;8.43;;;4.80;;
32786;SDS011;19139;49.372;8.580;2024-03-25T04:21:32;7.17;;;4.80;;
32786;SDS011;19139;49.372;8.580;2024-03-25T04:23:57;6.63;;;4.13;;
32786;SDS011;19139;49.372;8.580;2024-03-25T04:26:23;9.40;;;4.60;;
32786;SDS011;19139;49.372;8.580;2024-03-25T04:28:49;7.03;;;4.53;;
32786;SDS011;19139;49.372;8.580;2024-03-25T04:31:15;7.13;;;4.60;;
32786;SDS011;19139;49.372;8.580;2024-03-25T04:33:41;8.90;;;4.73;;
32786;SDS011;19139;49.372;8.580;2024-03-25T04:36:07;7.73;;;5.30;;
32786;SDS011;19139;49.372;8.580;2024-03-25T04:38:33;8.50;;;4.87;;
32786;SDS011;19139;49.372;8.580;2024-03-25T04:40:59;6.73;;;4.30;;
32786;SDS011;19139;49.372;8.580;2024-03-25T04:43:24;9.43;;;5.10;;
32786;SDS011;19139;49.372;8.580;2024-03-25T04:45:50;8.53;;;4.73;;
32786;SDS011;19139;49.372;8.580;2024-03-25T04:48:16;5.87;;;4.07;;
32786;SDS011;19139;49.372;8.580;2024-03-25T04:50:42;8.53;;;4.40;;
32786;SDS011;19139;49.372;8.580;2024-03-25T04:53:07;7.23;;;4.30;;
32786;SDS011;19139;49.372;8.580;2024-03-25T04:55:33;12.00;;;5.27;;
32786;SDS011;19139;49.372;8.580;2024-03-25T04:57:59;9.60;;;5.50;;
32786;SDS011;19139;49.372;8.580;2024-03-25T05:00:25;9.67;;;4.43;;
32786;SDS011;19139;49.372;8.580;2024-03-25T05:02:50;5.33;;;3.87;;
32786;SDS011;19139;49.372;8.580;2024-03-25T05:05:16;8.80;;;4.87;;
32786;SDS011;19139;49.372;8.580;2024-03-25T05:07:42;8.17;;;4.23;;
32786;SDS011;19139;49.372;8.580;2024-03-25T05:10:08;7.67;;;4.90;;
32786;SDS011;19139;49.372;8.580;2024-03-25T05:12:34;9.50;;;5.63;;
32786;SDS011;19139;49.372;8.580;2024-03-25T05:14:59;9.93;;;4.90;;
32786;SDS011;19139;49.372;8.580;2024-03-25T05:17:25;8.13;;;4.33;;
32786;SDS011;19139;49.372;8.580;2024-03-25T05:19:51;10.30;;;6.17;;
32786;SDS011;19139;49.372;8.580;2024-03-25T05:22:17;9.80;;;5.10;;
32786;SDS011;19139;49.372;8.580;2024-03-25T05:24:43;10.60;;;5.20;;
32786;SDS011;19139;49.372;8.580;2024-03-25T05:27:08;9.40;;;5.23;;
32786;SDS011;19139;49.372;8.580;2024-03-25T05:29:34;8.23;;;5.27;;
32786;SDS011;19139;49.372;8.580;2024-03-25T05:32:00;9.17;;;5.20;;
32786;SDS011;19139;49.372;8.580;2024-03-25T05:34:27;7.40;;;4.60;;
32786;SDS011;19139;49.372;8.580;2024-03-25T05:36:53;8.87;;;5.57;;
32786;SDS011;19139;49.372;8.580;2024-03-25T05:39:19;10.90;;;5.67;;
32786;SDS011;19139;49.372;8.580;2024-03-25T05:41:46;9.33;;;5.23;;
32786;SDS011;19139;49.372;8.580;2024-03-25T05:44:12;10.53;;;5.07;;
32786;SDS011;19139;49.372;8.580;2024-03-25T05:46:39;10.93;;;5.30;;
32786;SDS011;19139;49.372;8.580;2024-03-25T05:49:05;12.37;;;4.80;;
32786;SDS011;19139;49.372;8.580;2024-03-25T05:51:31;11.57;;;5.57;;
32786;SDS011;19139;49.372;8.580;2024-03-25T05:54:00;10.97;;;4.80;;
32786;SDS011;19139;49.372;8.580;2024-03-25T05:56:26;12.37;;;5.07;;
32786;SDS011;19139;49.372;8.580;2024-03-25T05:58:56;8.07;;;5.20;;
32786;SDS011;19139;49.372;8.580;2024-03-25T06:01:22;14.60;;;5.87;;
32786;SDS011;19139;49.372;8.580;2024-03-25T06:03:49;6.43;;;4.57;;
32786;SDS011;19139;49.372;8.580;2024-03-25T06:06:14;7.73;;;4.77;;
32786;SDS011;19139;49.372;8.580;2024-03-25T06:08:40;9.13;;;5.43;;
32786;SDS011;19139;49.372;8.580;2024-03-25T06:11:06;10.37;;;5.13;;
32786;SDS011;19139;49.372;8.580;2024-03-25T06:13:32;10.87;;;4.90;;
32786;SDS011;19139;49.372;8.580;2024-03-25T06:15:58;8.20;;;4.87;;
32786;SDS011;19139;49.372;8.580;2024-03-25T06:18:24;12.80;;;5.33;;
32786;SDS011;19139;49.372;8.580;2024-03-25T06:20:50;8.93;;;5.07;;
32786;SDS011;19139;49.372;8.580;2024-03-25T06:23:26;11.00;;;7.07;;
32786;SDS011;19139;49.372;8.580;2024-03-25T06:25:53;10.63;;;6.93;;
32786;SDS011;19139;49.372;8.580;2024-03-25T06:28:20;8.27;;;5.83;;
32786;SDS011;19139;49.372;8.580;2024-03-25T06:30:48;9.87;;;5.60;;
32786;SDS011;19139;49.372;8.580;2024-03-25T06:33:33;10.47;;;5.93;;
32786;SDS011;19139;49.372;8.580;2024-03-25T06:36:18;7.63;;;5.40;;
32786;SDS011;19139;49.372;8.580;2024-03-25T06:38:45;8.80;;;5.13;;
32786;SDS011;19139;49.372;8.580;2024-03-25T06:41:11;10.27;;;5.80;;
32786;SDS011;19139;49.372;8.580;2024-03-25T06:43:37;8.43;;;5.23;;
32786;SDS011;19139;49.372;8.580;2024-03-25T06:46:03;7.93;;;6.27;;
32786;SDS011;19139;49.372;8.580;2024-03-25T06:48:29;9.53;;;4.93;;
32786;SDS011;19139;49.372;8.580;2024-03-25T06:50:55;8.97;;;5.70;;
32786;SDS011;19139;49.372;8.580;2024-03-25T06:53:22;11.33;;;6.37;;
32786;SDS011;19139;49.372;8.580;2024-03-25T06:55:54;9.30;;;5.50;;
32786;SDS011;19139;49.372;8.580;2024-03-25T06:58:21;15.03;;;5.33;;
32786;SDS011;19139;49.372;8.580;2024-03-25T07:00:48;13.07;;;5.63;;
32786;SDS011;19139;49.372;8.580;2024-03-25T07:03:15;11.07;;;5.67;;
32786;SDS011;19139;49.372;8.580;2024-03-25T07:05:48;9.70;;;4.60;;
32786;SDS011;19139;49.372;8.580;2024-03-25T07:08:17;11.00;;;5.77;;
32786;SDS011;19139;49.372;8.580;2024-03-25T07:10:44;8.40;;;5.23;;
32786;SDS011;19139;49.372;8.580;2024-03-25T07:13:11;11.93;;;6.00;;
32786;SDS011;19139;49.372;8.580;2024-03-25T07:15:38;12.47;;;5.63;;
32786;SDS011;19139;49.372;8.580;2024-03-25T07:18:04;11.50;;;6.47;;
32786;SDS011;19139;49.372;8.580;2024-03-25T07:20:31;11.23;;;5.03;;
32786;SDS011;19139;49.372;8.580;2024-03-25T07:22:57;8.77;;;4.27;;
32786;SDS011;19139;49.372;8.580;2024-03-25T07:25:23;8.27;;;4.37;;
32786;SDS011;19139;49.372;8.580;2024-03-25T07:27:49;11.90;;;6.27;;
32786;SDS011;19139;49.372;8.580;2024-03-25T07:30:16;11.33;;;5.17;;
32786;SDS011;19139;49.372;8.580;2024-03-25T07:32:42;9.23;;;5.60;;
32786;SDS011;19139;49.372;8.580;2024-03-25T07:35:08;9.87;;;4.67;;
32786;SDS011;19139;49.372;8.580;2024-03-25T07:37:35;11.43;;;5.87;;
32786;SDS011;19139;49.372;8.580;2024-03-25T07:40:01;9.43;;;5.67;;
32786;SDS011;19139;49.372;8.580;2024-03-25T07:42:27;9.00;;;5.37;;
32786;SDS011;19139;49.372;8.580;2024-03-25T07:44:52;9.23;;;5.30;;
32786;SDS011;19139;49.372;8.580;2024-03-25T07:47:18;10.53;;;4.90;;
32786;SDS011;19139;49.372;8.580;2024-03-25T07:49:44;8.07;;;5.13;;
32786;SDS011;19139;49.372;8.580;2024-03-25T07:52:10;12.90;;;5.67;;
32786;SDS011;19139;49.372;8.580;2024-03-25T07:54:36;10.77;;;5.80;;
32786;SDS011;19139;49.372;8.580;2024-03-25T07:57:03;10.40;;;6.07;;
32786;SDS011;19139;49.372;8.580;2024-03-25T07:59:29;10.90;;;5.73;;
32786;SDS011;19139;49.372;8.580;2024-03-25T08:01:55;10.67;;;5.80;;
32786;SDS011;19139;49.372;8.580;2024-03-25T08:04:21;11.20;;;6.13;;
32786;SDS011;19139;49.372;8.580;2024-03-25T08:06:47;9.87;;;5.87;;
32786;SDS011;19139;49.372;8.580;2024-03-25T08:09:12;11.77;;;5.53;;
32786;SDS011;19139;49.372;8.580;2024-03-25T08:11:41;7.87;;;5.00;;
32786;SDS011;19139;49.372;8.580;2024-03-25T08:14:09;11.10;;;5.30;;
32786;SDS011;19139;49.372;8.580;2024-03-25T08:16:35;8.40;;;4.80;;
32786;SDS011;19139;49.372;8.580;2024-03-25T08:19:01;8.03;;;5.53;;
32786;SDS011;19139;49.372;8.580;2024-03-25T08:21:27;9.90;;;5.33;;
32786;SDS011;19139;49.372;8.580;2024-03-25T08:23:53;6.53;;;4.37;;
32786;SDS011;19139;49.372;8.580;2024-03-25T08:26:19;9.13;;;4.53;;
32786;SDS011;19139;49.372;8.580;2024-03-25T08:28:45;13.87;;;6.57;;
32786;SDS011;19139;49.372;8.580;2024-03-25T08:31:11;7.50;;;4.60;;
32786;SDS011;19139;49.372;8.580;2024-03-25T08:33:36;7.17;;;4.40;;
32786;SDS011;19139;49.372;8.580;2024-03-25T08:36:02;9.70;;;5.20;;
32786;SDS011;19139;49.372;8.580;2024-03-25T08:38:28;11.40;;;4.40;;
32786;SDS011;19139;49.372;8.580;2024-03-25T08:40:54;9.20;;;3.77;;
32786;SDS011;19139;49.372;8.580;2024-03-25T08:43:20;8.53;;;4.33;;
32786;SDS011;19139;49.372;8.580;2024-03-25T08:45:46;5.80;;;3.33;;
32786;SDS011;19139;49.372;8.580;2024-03-25T08:48:12;5.43;;;2.47;;
32786;SDS011;19139;49.372;8.580;2024-03-25T08:50:38;11.03;;;3.03;;
32786;SDS011;19139;49.372;8.580;2024-03-25T08:56:51;4.10;;;2.30;;
32786;SDS011;19139;49.372;8.580;2024-03-25T08:59:17;6.53;;;2.97;;
32786;SDS011;19139;49.372;8.580;2024-03-25T09:01:43;8.23;;;3.03;;
32786;SDS011;19139;49.372;8.580;2024-03-25T09:04:08;6.23;;;3.07;;
32786;SDS011;19139;49.372;8.580;2024-03-25T09:06:34;6.73;;;2.53;;
32786;SDS011;19139;49.372;8.580;2024-03-25T09:09:03;5.67;;;2.53;;
32786;SDS011;19139;49.372;8.580;2024-03-25T09:11:47;7.53;;;3.27;;
32786;SDS011;19139;49.372;8.580;2024-03-25T09:14:13;3.87;;;2.70;;
32786;SDS011;19139;49.372;8.580;2024-03-25T09:16:39;9.73;;;2.97;;
32786;SDS011;19139;49.372;8.580;2024-03-25T09:19:05;8.00;;;2.87;;
32786;SDS011;19139;49.372;8.580;2024-03-25T09:21:31;6.90;;;3.53;;
32786;SDS011;19139;49.372;8.580;2024-03-25T09:23:56;6.33;;;3.07;;
32786;SDS011;19139;49.372;8.580;2024-03-25T09:26:23;5.13;;;2.30;;
32786;SDS011;19139;49.372;8.580;2024-03-25T09:28:49;4.10;;;2.10;;
32786;SDS011;19139;49.372;8.580;2024-03-25T09:31:15;6.00;;;2.63;;
32786;SDS011;19139;49.372;8.580;2024-03-25T09:33:40;8.70;;;2.30;;
32786;SDS011;19139;49.372;8.580;2024-03-25T09:36:06;4.77;;;2.33;;
32786;SDS011;19139;49.372;8.580;2024-03-25T09:38:32;4.27;;;1.97;;
32786;SDS011;19139;49.372;8.580;2024-03-25T09:40:57;5.60;;;2.00;;
32786;SDS011;19139;49.372;8.580;2024-03-25T09:43:25;4.37;;;2.33;;
32786;SDS011;19139;49.372;8.580;2024-03-25T09:45:56;8.57;;;2.70;;
32786;SDS011;19139;49.372;8.580;2024-03-25T09:48:24;5.10;;;2.23;;
32786;SDS011;19139;49.372;8.580;2024-03-25T09:50:50;6.70;;;2.53;;
32786;SDS011;19139;49.372;8.580;2024-03-25T09:53:18;9.40;;;3.03;;
32786;SDS011;19139;49.372;8.580;2024-03-25T09:55:46;3.57;;;2.00;;
32786;SDS011;19139;49.372;8.580;2024-03-25T09:58:12;3.17;;;2.10;;
32786;SDS011;19139;49.372;8.580;2024-03-25T10:00:43;3.13;;;2.30;;
32786;SDS011;19139;49.372;8.580;2024-03-25T10:03:08;5.10;;;1.70;;
32786;SDS011;19139;49.372;8.580;2024-03-25T10:05:34;5.53;;;2.00;;
32786;SDS011;19139;49.372;8.580;2024-03-25T10:08:01;3.80;;;1.80;;
32786;SDS011;19139;49.372;8.580;2024-03-25T10:10:28;3.23;;;1.80;;
32786;SDS011;19139;49.372;8.580;2024-03-25T10:12:56;5.03;;;2.30;;
32786;SDS011;19139;49.372;8.580;2024-03-25T10:15:22;4.87;;;1.70;;
32786;SDS011;19139;49.372;8.580;2024-03-25T10:17:50;4.73;;;2.53;;
32786;SDS011;19139;49.372;8.580;2024-03-25T10:20:17;4.97;;;2.13;;
32786;SDS011;19139;49.372;8.580;2024-03-25T10:22:44;4.33;;;2.03;;
32786;SDS011;19139;49.372;8.580;2024-03-25T10:27:57;4.10;;;2.20;;
32786;SDS011;19139;49.372;8.580;2024-03-25T10:30:24;6.07;;;2.40;;
32786;SDS011;19139;49.372;8.580;2024-03-25T10:33:00;3.90;;;2.20;;
32786;SDS011;19139;49.372;8.580;2024-03-25T10:35:27;5.97;;;1.70;;
32786;SDS011;19139;49.372;8.580;2024-03-25T10:38:03;5.77;;;2.50;;
32786;SDS011;19139;49.372;8.580;2024-03-25T10:40:31;5.43;;;2.50;;
32786;SDS011;19139;49.372;8.580;2024-03-25T10:45:29;5.00;;;2.70;;
32786;SDS011;19139;49.372;8.580;2024-03-25T10:47:59;6.03;;;2.30;;
32786;SDS011;19139;49.372;8.580;2024-03-25T10:50:35;2.23;;;2.00;;
32786;SDS011;19139;49.372;8.580;2024-03-25T10:53:03;3.03;;;1.93;;
32786;SDS011;19139;49.372;8.580;2024-03-25T10:55:30;5.90;;;2.57;;
32786;SDS011;19139;49.372;8.580;2024-03-25T10:57:58;3.77;;;2.20;;
32786;SDS011;19139;49.372;8.580;2024-03-25T11:00:25;2.83;;;1.97;;
32786;SDS011;19139;49.372;8.580;2024-03-25T11:02:51;5.00;;;2.40;;
32786;SDS011;19139;49.372;8.580;2024-03-25T11:05:18;5.43;;;2.00;;
32786;SDS011;19139;49.372;8.580;2024-03-25T11:07:44;3.37;;;2.27;;
32786;SDS011;19139;49.372;8.580;2024-03-25T11:10:11;2.57;;;1.80;;
32786;SDS011;19139;49.372;8.580;2024-03-25T11:12:38;7.63;;;2.33;;
32786;SDS011;19139;49.372;8.580;2024-03-25T11:15:07;4.27;;;2.23;;
32786;SDS011;19139;49.372;8.580;2024-03-25T11:17:34;3.57;;;2.00;;
32786;SDS011;19139;49.372;8.580;2024-03-25T11:20:10;3.63;;;2.17;;
32786;SDS011;19139;49.372;8.580;2024-03-25T11:22:47;4.00;;;1.90;;
32786;SDS011;19139;49.372;8.580;2024-03-25T11:25:14;5.40;;;2.13;;
32786;SDS011;19139;49.372;8.580;2024-03-25T11:27:42;3.50;;;2.43;;
32786;SDS011;19139;49.372;8.580;2024-03-25T11:30:09;3.97;;;2.10;;
32786;SDS011;19139;49.372;8.580;2024-03-25T11:35:36;6.23;;;1.93;;
32786;SDS011;19139;49.372;8.580;2024-03-25T11:38:02;3.53;;;2.00;;
32786;SDS011;19139;49.372;8.580;2024-03-25T11:40:28;3.60;;;1.80;;
32786;SDS011;19139;49.372;8.580;2024-03-25T11:42:54;4.40;;;2.07;;
32786;SDS011;19139;49.372;8.580;2024-03-25T11:45:20;3.60;;;2.37;;
32786;SDS011;19139;49.372;8.580;2024-03-25T11:47:47;4.90;;;2.70;;
32786;SDS011;19139;49.372;8.580;2024-03-25T11:50:14;5.47;;;3.07;;
32786;SDS011;19139;49.372;8.580;2024-03-25T11:52:42;5.37;;;3.60;;
32786;SDS011;19139;49.372;8.580;2024-03-25T11:55:08;4.00;;;2.10;;
32786;SDS011;19139;49.372;8.580;2024-03-25T11:57:37;5.07;;;2.00;;
32786;SDS011;19139;49.372;8.580;2024-03-25T12:00:04;4.40;;;2.07;;
32786;SDS011;19139;49.372;8.580;2024-03-25T12:02:31;3.37;;;2.20;;
32786;SDS011;19139;49.372;8.580;2024-03-25T12:04:57;8.07;;;1.93;;
32786;SDS011;19139;49.372;8.580;2024-03-25T12:07:22;2.73;;;2.27;;
32786;SDS011;19139;49.372;8.580;2024-03-25T12:09:48;5.43;;;2.53;;
32786;SDS011;19139;49.372;8.580;2024-03-25T12:12:32;5.40;;;1.90;;
32786;SDS011;19139;49.372;8.580;2024-03-25T12:15:00;4.90;;;2.60;;
32786;SDS011;19139;49.372;8.580;2024-03-25T12:17:28;4.40;;;2.10;;
32786;SDS011;19139;49.372;8.580;2024-03-25T12:22:30;6.60;;;2.40;;
32786;SDS011;19139;49.372;8.580;2024-03-25T12:24:58;3.23;;;2.00;;
32786;SDS011;19139;49.372;8.580;2024-03-25T12:27:28;3.83;;;2.00;;
32786;SDS011;19139;49.372;8.580;2024-03-25T12:30:02;5.93;;;2.20;;
32786;SDS011;19139;49.372;8.580;2024-03-25T12:32:38;3.57;;;2.20;;
32786;SDS011;19139;49.372;8.580;2024-03-25T12:37:36;6.40;;;2.23;;
32786;SDS011;19139;49.372;8.580;2024-03-25T12:40:02;4.57;;;2.33;;
32786;SDS011;19139;49.372;8.580;2024-03-25T12:42:31;6.33;;;2.37;;
32786;SDS011;19139;49.372;8.580;2024-03-25T12:44:57;3.77;;;2.10;;
32786;SDS011;19139;49.372;8.580;2024-03-25T12:47:23;5.73;;;2.20;;
32786;SDS011;19139;49.372;8.580;2024-03-25T12:49:49;3.37;;;2.17;;
32786;SDS011;19139;49.372;8.580;2024-03-25T12:52:15;4.27;;;2.70;;
32786;SDS011;19139;49.372;8.580;2024-03-25T12:54:40;3.80;;;1.93;;
32786;SDS011;19139;49.372;8.580;2024-03-25T12:57:10;6.03;;;2.50;;
32786;SDS011;19139;49.372;8.580;2024-03-25T12:59:37;4.50;;;2.10;;
32786;SDS011;19139;49.372;8.580;2024-03-25T13:02:03;3.93;;;2.20;;
32786;SDS011;19139;49.372;8.580;2024-03-25T13:04:28;5.93;;;2.10;;
32786;SDS011;19139;49.372;8.580;2024-03-25T13:06:54;5.37;;;2.20;;
32786;SDS011;19139;49.372;8.580;2024-03-25T13:09:20;3.70;;;2.47;;
32786;SDS011;19139;49.372;8.580;2024-03-25T13:11:46;2.80;;;2.30;;
32786;SDS011;19139;49.372;8.580;2024-03-25T13:14:13;5.73;;;1.50;;
32786;SDS011;19139;49.372;8.580;2024-03-25T13:16:39;3.30;;;2.03;;
32786;SDS011;19139;49.372;8.580;2024-03-25T13:19:05;4.23;;;2.00;;
32786;SDS011;19139;49.372;8.580;2024-03-25T13:21:32;4.13;;;1.70;;
32786;SDS011;19139;49.372;8.580;2024-03-25T13:23:58;6.73;;;3.23;;
32786;SDS011;19139;49.372;8.580;2024-03-25T13:26:24;4.30;;;2.60;;
32786;SDS011;19139;49.372;8.580;2024-03-25T13:28:51;5.70;;;2.07;;
32786;SDS011;19139;49.372;8.580;2024-03-25T13:31:18;4.50;;;2.00;;
32786;SDS011;19139;49.372;8.580;2024-03-25T13:33:45;4.90;;;1.73;;
32786;SDS011;19139;49.372;8.580;2024-03-25T13:36:10;3.63;;;1.87;;
32786;SDS011;19139;49.372;8.580;2024-03-25T13:38:36;5.03;;;1.97;;
32786;SDS011;19139;49.372;8.580;2024-03-25T13:41:02;6.80;;;1.97;;
32786;SDS011;19139;49.372;8.580;2024-03-25T13:43:28;3.60;;;1.93;;
32786;SDS011;19139;49.372;8.580;2024-03-25T13:45:54;3.97;;;2.10;;
32786;SDS011;19139;49.372;8.580;2024-03-25T13:48:20;2.60;;;1.53;;
32786;SDS011;19139;49.372;8.580;2024-03-25T13:50:45;5.97;;;2.00;;
32786;SDS011;19139;49.372;8.580;2024-03-25T13:53:11;2.13;;;1.20;;
32786;SDS011;19139;49.372;8.580;2024-03-25T13:55:37;4.50;;;1.37;;
32786;SDS011;19139;49.372;8.580;2024-03-25T13:58:03;2.03;;;1.30;;
32786;SDS011;19139;49.372;8.580;2024-03-25T14:00:30;2.93;;;1.30;;
32786;SDS011;19139;49.372;8.580;2024-03-25T14:02:59;2.83;;;1.80;;
32786;SDS011;19139;49.372;8.580;2024-03-25T14:05:25;2.87;;;1.70;;
32786;SDS011;19139;49.372;8.580;2024-03-25T14:07:51;3.03;;;1.43;;
32786;SDS011;19139;49.372;8.580;2024-03-25T14:10:17;3.00;;;1.30;;
32786;SDS011;19139;49.372;8.580;2024-03-25T14:12:42;4.37;;;1.97;;
32786;SDS011;19139;49.372;8.580;2024-03-25T14:15:08;3.23;;;1.57;;
32786;SDS011;19139;49.372;8.580;2024-03-25T14:17:34;2.70;;;1.70;;
32786;SDS011;19139;49.372;8.580;2024-03-25T14:20:00;2.60;;;1.60;;
32786;SDS011;19139;49.372;8.580;2024-03-25T14:22:26;3.03;;;1.30;;
32786;SDS011;19139;49.372;8.580;2024-03-25T14:24:52;3.53;;;1.63;;
32786;SDS011;19139;49.372;8.580;2024-03-25T14:27:23;5.00;;;1.83;;
32786;SDS011;19139;49.372;8.580;2024-03-25T14:29:49;6.03;;;2.10;;
32786;SDS011;19139;49.372;8.580;2024-03-25T14:32:15;4.40;;;2.07;;
32786;SDS011;19139;49.372;8.580;2024-03-25T14:34:43;3.40;;;1.70;;
32786;SDS011;19139;49.372;8.580;2024-03-25T14:37:09;2.33;;;1.70;;
32786;SDS011;19139;49.372;8.580;2024-03-25T14:39:35;2.93;;;1.90;;
32786;SDS011;19139;49.372;8.580;2024-03-25T14:42:01;5.00;;;1.87;;
32786;SDS011;19139;49.372;8.580;2024-03-25T14:44:26;3.67;;;2.17;;
32786;SDS011;19139;49.372;8.580;2024-03-25T14:46:52;3.53;;;2.10;;
32786;SDS011;19139;49.372;8.580;2024-03-25T14:49:18;2.17;;;1.40;;
32786;SDS011;19139;49.372;8.580;2024-03-25T14:51:44;4.10;;;2.03;;
32786;SDS011;19139;49.372;8.580;2024-03-25T14:54:09;3.80;;;1.67;;
32786;SDS011;19139;49.372;8.580;2024-03-25T14:56:35;4.70;;;1.67;;
32786;SDS011;19139;49.372;8.580;2024-03-25T14:59:01;3.77;;;1.73;;